sensor_id;sensor_type;location;lat;lon;timestamp;P1;durP1;ratioP1;P2;durP2;ratioP2
7621;SDS011;3852;52.284;8.032;2022-09-27T00:00:40;20.53;;;13.50;;
7621;SDS011;3852;52.284;8.032;2022-09-27T00:03:07;24.63;;;13.70;;
7621;SDS011;3852;52.284;8.032;2022-09-27T00:05:34;24.07;;;13.20;;
7621;SDS011;3852;52.284;8.032;2022-09-27T00:08:00;23.60;;;13.40;;
7621;SDS011;3852;52.284;8.032;2022-09-27T00:10:27;19.73;;;11.73;;
7621;SDS011;3852;52.284;8.032;2022-09-27T00:12:53;21.37;;;12.70;;
7621;SDS011;3852;52.284;8.032;2022-09-27T00:15:19;21.37;;;12.17;;
7621;SDS011;3852;52.284;8.032;2022-09-27T00:17:45;18.67;;;10.63;;
7621;SDS011;3852;52.284;8.032;2022-09-27T00:20:11;26.70;;;12.90;;
7621;SDS011;3852;52.284;8.032;2022-09-27T00:22:37;20.17;;;11.47;;
7621;SDS011;3852;52.284;8.032;2022-09-27T00:25:03;22.03;;;12.60;;
7621;SDS011;3852;52.284;8.032;2022-09-27T00:27:31;18.43;;;12.03;;
7621;SDS011;3852;52.284;8.032;2022-09-27T00:29:57;20.50;;;12.07;;
7621;SDS011;3852;52.284;8.032;2022-09-27T00:32:22;20.40;;;12.40;;
7621;SDS011;3852;52.284;8.032;2022-09-27T00:34:48;21.87;;;11.50;;
7621;SDS011;3852;52.284;8.032;2022-09-27T00:37:14;20.83;;;10.60;;
7621;SDS011;3852;52.284;8.032;2022-09-27T00:39:40;20.80;;;11.30;;
7621;SDS011;3852;52.284;8.032;2022-09-27T00:42:09;17.40;;;11.20;;
7621;SDS011;3852;52.284;8.032;2022-09-27T00:49:54;21.20;;;10.67;;
7621;SDS011;3852;52.284;8.032;2022-09-27T00:55:35;16.20;;;9.97;;
7621;SDS011;3852;52.284;8.032;2022-09-27T00:58:17;19.07;;;10.60;;
7621;SDS011;3852;52.284;8.032;2022-09-27T01:00:47;16.93;;;9.50;;
7621;SDS011;3852;52.284;8.032;2022-09-27T01:03:22;19.53;;;8.90;;
7621;SDS011;3852;52.284;8.032;2022-09-27T01:06:10;15.43;;;9.63;;
7621;SDS011;3852;52.284;8.032;2022-09-27T01:08:36;19.73;;;10.53;;
7621;SDS011;3852;52.284;8.032;2022-09-27T01:11:07;15.87;;;9.07;;
7621;SDS011;3852;52.284;8.032;2022-09-27T01:13:48;16.93;;;9.37;;
7621;SDS011;3852;52.284;8.032;2022-09-27T01:32:47;9.83;;;7.23;;
7621;SDS011;3852;52.284;8.032;2022-09-27T01:41:52;12.17;;;7.00;;
7621;SDS011;3852;52.284;8.032;2022-09-27T01:47:36;17.53;;;7.50;;
7621;SDS011;3852;52.284;8.032;2022-09-27T01:50:13;12.17;;;7.83;;
7621;SDS011;3852;52.284;8.032;2022-09-27T01:53:02;15.23;;;7.60;;
7621;SDS011;3852;52.284;8.032;2022-09-27T01:55:48;13.10;;;6.80;;
7621;SDS011;3852;52.284;8.032;2022-09-27T01:59:18;18.03;;;7.00;;
7621;SDS011;3852;52.284;8.032;2022-09-27T02:01:33;11.87;;;6.70;;
7621;SDS011;3852;52.284;8.032;2022-09-27T02:04:02;17.83;;;6.37;;
7621;SDS011;3852;52.284;8.032;2022-09-27T02:06:33;12.23;;;6.30;;
7621;SDS011;3852;52.284;8.032;2022-09-27T02:11:53;9.73;;;5.53;;
7621;SDS011;3852;52.284;8.032;2022-09-27T02:22:31;15.97;;;5.87;;
7621;SDS011;3852;52.284;8.032;2022-09-27T02:25:20;8.97;;;5.63;;
7621;SDS011;3852;52.284;8.032;2022-09-27T02:28:13;10.17;;;4.70;;
7621;SDS011;3852;52.284;8.032;2022-09-27T02:30:48;7.87;;;4.90;;
7621;SDS011;3852;52.284;8.032;2022-09-27T02:33:14;11.23;;;5.10;;
7621;SDS011;3852;52.284;8.032;2022-09-27T02:35:43;12.47;;;5.20;;
7621;SDS011;3852;52.284;8.032;2022-09-27T02:38:10;10.63;;;5.40;;
7621;SDS011;3852;52.284;8.032;2022-09-27T02:40:42;11.47;;;5.03;;
7621;SDS011;3852;52.284;8.032;2022-09-27T02:43:10;12.33;;;5.50;;
7621;SDS011;3852;52.284;8.032;2022-09-27T03:04:38;14.33;;;4.73;;
7621;SDS011;3852;52.284;8.032;2022-09-27T03:07:10;8.67;;;4.07;;
7621;SDS011;3852;52.284;8.032;2022-09-27T03:09:48;8.80;;;4.23;;
7621;SDS011;3852;52.284;8.032;2022-09-27T03:12:17;6.47;;;4.17;;
7621;SDS011;3852;52.284;8.032;2022-09-27T03:14:50;13.10;;;5.00;;
7621;SDS011;3852;52.284;8.032;2022-09-27T03:17:20;9.40;;;3.97;;
7621;SDS011;3852;52.284;8.032;2022-09-27T03:19:47;8.50;;;4.13;;
7621;SDS011;3852;52.284;8.032;2022-09-27T03:22:13;8.07;;;3.63;;
7621;SDS011;3852;52.284;8.032;2022-09-27T03:24:39;8.07;;;3.70;;
7621;SDS011;3852;52.284;8.032;2022-09-27T03:27:05;6.27;;;3.37;;
7621;SDS011;3852;52.284;8.032;2022-09-27T03:29:31;5.13;;;3.30;;
7621;SDS011;3852;52.284;8.032;2022-09-27T03:31:57;11.37;;;4.07;;
7621;SDS011;3852;52.284;8.032;2022-09-27T03:34:23;4.90;;;3.30;;
7621;SDS011;3852;52.284;8.032;2022-09-27T03:36:49;5.17;;;3.23;;
7621;SDS011;3852;52.284;8.032;2022-09-27T03:39:15;6.20;;;3.80;;
7621;SDS011;3852;52.284;8.032;2022-09-27T03:41:41;6.60;;;3.67;;
7621;SDS011;3852;52.284;8.032;2022-09-27T03:44:07;6.10;;;2.90;;
7621;SDS011;3852;52.284;8.032;2022-09-27T03:46:33;5.73;;;3.27;;
7621;SDS011;3852;52.284;8.032;2022-09-27T03:48:59;4.53;;;3.03;;
7621;SDS011;3852;52.284;8.032;2022-09-27T03:51:25;6.40;;;3.10;;
7621;SDS011;3852;52.284;8.032;2022-09-27T03:53:51;6.00;;;3.17;;
7621;SDS011;3852;52.284;8.032;2022-09-27T03:56:17;5.13;;;2.97;;
7621;SDS011;3852;52.284;8.032;2022-09-27T03:58:43;6.13;;;3.20;;
7621;SDS011;3852;52.284;8.032;2022-09-27T04:01:09;6.30;;;2.93;;
7621;SDS011;3852;52.284;8.032;2022-09-27T04:03:35;5.90;;;3.27;;
7621;SDS011;3852;52.284;8.032;2022-09-27T04:06:02;6.37;;;3.37;;
7621;SDS011;3852;52.284;8.032;2022-09-27T04:08:28;7.87;;;4.70;;
7621;SDS011;3852;52.284;8.032;2022-09-27T04:10:54;5.10;;;3.00;;
7621;SDS011;3852;52.284;8.032;2022-09-27T04:13:20;8.43;;;3.13;;
7621;SDS011;3852;52.284;8.032;2022-09-27T04:15:46;3.70;;;2.97;;
7621;SDS011;3852;52.284;8.032;2022-09-27T04:18:12;4.90;;;3.30;;
7621;SDS011;3852;52.284;8.032;2022-09-27T04:20:38;3.00;;;2.63;;
7621;SDS011;3852;52.284;8.032;2022-09-27T04:23:04;6.23;;;2.80;;
7621;SDS011;3852;52.284;8.032;2022-09-27T04:25:30;3.87;;;2.70;;
7621;SDS011;3852;52.284;8.032;2022-09-27T04:27:59;4.40;;;2.80;;
7621;SDS011;3852;52.284;8.032;2022-09-27T04:30:27;5.90;;;2.77;;
7621;SDS011;3852;52.284;8.032;2022-09-27T04:32:53;7.37;;;2.67;;
7621;SDS011;3852;52.284;8.032;2022-09-27T04:35:19;3.63;;;2.60;;
7621;SDS011;3852;52.284;8.032;2022-09-27T04:38:04;4.60;;;2.50;;
7621;SDS011;3852;52.284;8.032;2022-09-27T04:40:32;4.57;;;2.50;;
7621;SDS011;3852;52.284;8.032;2022-09-27T04:43:02;4.47;;;2.70;;
7621;SDS011;3852;52.284;8.032;2022-09-27T04:45:28;7.87;;;2.50;;
7621;SDS011;3852;52.284;8.032;2022-09-27T04:47:54;5.03;;;2.63;;
7621;SDS011;3852;52.284;8.032;2022-09-27T04:50:20;4.73;;;2.90;;
7621;SDS011;3852;52.284;8.032;2022-09-27T04:52:52;5.33;;;3.30;;
7621;SDS011;3852;52.284;8.032;2022-09-27T04:55:19;3.10;;;2.70;;
7621;SDS011;3852;52.284;8.032;2022-09-27T04:57:46;5.00;;;2.97;;
7621;SDS011;3852;52.284;8.032;2022-09-27T05:00:12;3.00;;;2.53;;
7621;SDS011;3852;52.284;8.032;2022-09-27T05:02:39;4.93;;;2.90;;
7621;SDS011;3852;52.284;8.032;2022-09-27T05:05:07;4.17;;;2.80;;
7621;SDS011;3852;52.284;8.032;2022-09-27T05:07:34;4.20;;;3.43;;
7621;SDS011;3852;52.284;8.032;2022-09-27T05:10:01;6.07;;;3.30;;
7621;SDS011;3852;52.284;8.032;2022-09-27T05:12:28;5.00;;;3.00;;
7621;SDS011;3852;52.284;8.032;2022-09-27T05:14:53;8.07;;;3.03;;
7621;SDS011;3852;52.284;8.032;2022-09-27T05:17:19;4.60;;;3.20;;
7621;SDS011;3852;52.284;8.032;2022-09-27T05:19:46;4.73;;;3.13;;
7621;SDS011;3852;52.284;8.032;2022-09-27T05:22:13;5.40;;;3.00;;
7621;SDS011;3852;52.284;8.032;2022-09-27T05:24:39;6.13;;;4.00;;
7621;SDS011;3852;52.284;8.032;2022-09-27T05:27:06;7.27;;;4.10;;
7621;SDS011;3852;52.284;8.032;2022-09-27T05:29:36;7.63;;;4.00;;
7621;SDS011;3852;52.284;8.032;2022-09-27T05:32:02;5.53;;;3.80;;
7621;SDS011;3852;52.284;8.032;2022-09-27T05:34:28;6.07;;;4.20;;
7621;SDS011;3852;52.284;8.032;2022-09-27T05:36:56;6.70;;;4.20;;
7621;SDS011;3852;52.284;8.032;2022-09-27T05:39:22;5.67;;;3.60;;
7621;SDS011;3852;52.284;8.032;2022-09-27T05:41:48;6.53;;;3.70;;
7621;SDS011;3852;52.284;8.032;2022-09-27T05:44:14;4.70;;;3.90;;
7621;SDS011;3852;52.284;8.032;2022-09-27T05:46:41;5.57;;;3.37;;
7621;SDS011;3852;52.284;8.032;2022-09-27T05:49:07;11.63;;;3.47;;
7621;SDS011;3852;52.284;8.032;2022-09-27T05:51:33;5.50;;;3.37;;
7621;SDS011;3852;52.284;8.032;2022-09-27T05:53:59;6.97;;;3.80;;
7621;SDS011;3852;52.284;8.032;2022-09-27T05:56:25;3.73;;;3.07;;
7621;SDS011;3852;52.284;8.032;2022-09-27T05:58:50;6.27;;;2.93;;
7621;SDS011;3852;52.284;8.032;2022-09-27T06:01:16;5.93;;;2.80;;
7621;SDS011;3852;52.284;8.032;2022-09-27T06:03:43;4.97;;;2.90;;
7621;SDS011;3852;52.284;8.032;2022-09-27T06:06:10;3.73;;;2.60;;
7621;SDS011;3852;52.284;8.032;2022-09-27T06:08:37;3.93;;;3.00;;
7621;SDS011;3852;52.284;8.032;2022-09-27T06:11:07;4.87;;;2.90;;
7621;SDS011;3852;52.284;8.032;2022-09-27T06:13:36;6.23;;;2.53;;
7621;SDS011;3852;52.284;8.032;2022-09-27T06:16:06;5.53;;;2.73;;
7621;SDS011;3852;52.284;8.032;2022-09-27T06:18:35;3.77;;;2.13;;
7621;SDS011;3852;52.284;8.032;2022-09-27T06:21:02;4.83;;;2.40;;
7621;SDS011;3852;52.284;8.032;2022-09-27T06:23:29;3.90;;;2.37;;
7621;SDS011;3852;52.284;8.032;2022-09-27T06:25:59;7.27;;;2.70;;
7621;SDS011;3852;52.284;8.032;2022-09-27T06:28:32;6.50;;;2.63;;
7621;SDS011;3852;52.284;8.032;2022-09-27T06:31:01;3.03;;;2.27;;
7621;SDS011;3852;52.284;8.032;2022-09-27T06:33:31;4.87;;;2.70;;
7621;SDS011;3852;52.284;8.032;2022-09-27T06:36:00;3.53;;;2.60;;
7621;SDS011;3852;52.284;8.032;2022-09-27T06:38:27;2.40;;;2.30;;
7621;SDS011;3852;52.284;8.032;2022-09-27T06:40:53;4.47;;;2.60;;
7621;SDS011;3852;52.284;8.032;2022-09-27T06:43:22;3.43;;;2.40;;
7621;SDS011;3852;52.284;8.032;2022-09-27T06:45:48;4.93;;;2.63;;
7621;SDS011;3852;52.284;8.032;2022-09-27T06:48:15;4.17;;;2.70;;
7621;SDS011;3852;52.284;8.032;2022-09-27T06:50:41;7.13;;;2.43;;
7621;SDS011;3852;52.284;8.032;2022-09-27T06:53:10;5.83;;;2.80;;
7621;SDS011;3852;52.284;8.032;2022-09-27T06:55:38;7.10;;;2.13;;
7621;SDS011;3852;52.284;8.032;2022-09-27T06:58:04;7.03;;;2.63;;
7621;SDS011;3852;52.284;8.032;2022-09-27T07:00:53;4.53;;;2.70;;
7621;SDS011;3852;52.284;8.032;2022-09-27T07:03:20;3.13;;;2.70;;
7621;SDS011;3852;52.284;8.032;2022-09-27T07:05:54;3.87;;;2.43;;
7621;SDS011;3852;52.284;8.032;2022-09-27T07:08:24;5.70;;;2.40;;
7621;SDS011;3852;52.284;8.032;2022-09-27T07:10:53;5.83;;;2.43;;
7621;SDS011;3852;52.284;8.032;2022-09-27T07:13:39;4.23;;;2.20;;
7621;SDS011;3852;52.284;8.032;2022-09-27T07:16:09;2.63;;;2.43;;
7621;SDS011;3852;52.284;8.032;2022-09-27T07:18:37;4.70;;;2.37;;
7621;SDS011;3852;52.284;8.032;2022-09-27T07:21:04;4.23;;;2.70;;
7621;SDS011;3852;52.284;8.032;2022-09-27T07:23:30;4.03;;;2.37;;
7621;SDS011;3852;52.284;8.032;2022-09-27T07:25:59;5.57;;;2.70;;
7621;SDS011;3852;52.284;8.032;2022-09-27T07:28:35;3.37;;;2.40;;
7621;SDS011;3852;52.284;8.032;2022-09-27T07:31:02;5.43;;;2.17;;
7621;SDS011;3852;52.284;8.032;2022-09-27T07:33:29;7.47;;;2.77;;
7621;SDS011;3852;52.284;8.032;2022-09-27T07:35:55;3.30;;;2.40;;
7621;SDS011;3852;52.284;8.032;2022-09-27T07:38:21;4.13;;;1.83;;
7621;SDS011;3852;52.284;8.032;2022-09-27T07:40:47;1.90;;;1.80;;
7621;SDS011;3852;52.284;8.032;2022-09-27T07:43:13;4.80;;;2.00;;
7621;SDS011;3852;52.284;8.032;2022-09-27T07:45:39;4.27;;;1.90;;
7621;SDS011;3852;52.284;8.032;2022-09-27T07:48:09;4.00;;;1.80;;
7621;SDS011;3852;52.284;8.032;2022-09-27T07:50:38;3.43;;;1.80;;
7621;SDS011;3852;52.284;8.032;2022-09-27T07:53:04;6.27;;;2.20;;
7621;SDS011;3852;52.284;8.032;2022-09-27T07:55:30;3.50;;;1.63;;
7621;SDS011;3852;52.284;8.032;2022-09-27T07:58:06;3.63;;;1.80;;
7621;SDS011;3852;52.284;8.032;2022-09-27T08:00:35;2.87;;;1.90;;
7621;SDS011;3852;52.284;8.032;2022-09-27T08:03:12;3.53;;;1.60;;
7621;SDS011;3852;52.284;8.032;2022-09-27T08:05:40;6.27;;;2.00;;
7621;SDS011;3852;52.284;8.032;2022-09-27T08:08:07;4.03;;;1.90;;
7621;SDS011;3852;52.284;8.032;2022-09-27T08:10:34;2.77;;;1.70;;
7621;SDS011;3852;52.284;8.032;2022-09-27T08:13:00;5.10;;;1.63;;
7621;SDS011;3852;52.284;8.032;2022-09-27T08:15:29;4.27;;;1.50;;
7621;SDS011;3852;52.284;8.032;2022-09-27T08:17:56;3.00;;;1.40;;
7621;SDS011;3852;52.284;8.032;2022-09-27T08:20:22;3.90;;;1.63;;
7621;SDS011;3852;52.284;8.032;2022-09-27T08:22:48;5.37;;;1.50;;
7621;SDS011;3852;52.284;8.032;2022-09-27T08:25:13;3.20;;;1.30;;
7621;SDS011;3852;52.284;8.032;2022-09-27T08:27:40;4.70;;;2.17;;
7621;SDS011;3852;52.284;8.032;2022-09-27T08:30:06;5.70;;;1.73;;
7621;SDS011;3852;52.284;8.032;2022-09-27T08:32:32;2.80;;;1.63;;
7621;SDS011;3852;52.284;8.032;2022-09-27T08:34:58;4.73;;;1.93;;
7621;SDS011;3852;52.284;8.032;2022-09-27T08:37:24;2.93;;;1.47;;
7621;SDS011;3852;52.284;8.032;2022-09-27T08:39:50;1.83;;;1.43;;
7621;SDS011;3852;52.284;8.032;2022-09-27T08:45:14;3.43;;;1.60;;
7621;SDS011;3852;52.284;8.032;2022-09-27T08:47:52;13.73;;;4.23;;
7621;SDS011;3852;52.284;8.032;2022-09-27T08:50:35;3.57;;;1.50;;
7621;SDS011;3852;52.284;8.032;2022-09-27T08:53:13;3.03;;;1.57;;
7621;SDS011;3852;52.284;8.032;2022-09-27T08:55:48;4.70;;;1.80;;
7621;SDS011;3852;52.284;8.032;2022-09-27T09:00:53;3.50;;;1.60;;
7621;SDS011;3852;52.284;8.032;2022-09-27T09:03:24;4.43;;;1.40;;
7621;SDS011;3852;52.284;8.032;2022-09-27T09:05:58;5.23;;;1.77;;
7621;SDS011;3852;52.284;8.032;2022-09-27T09:08:50;4.07;;;2.00;;
7621;SDS011;3852;52.284;8.032;2022-09-27T09:23:46;4.00;;;1.50;;
7621;SDS011;3852;52.284;8.032;2022-09-27T09:31:53;5.53;;;1.53;;
7621;SDS011;3852;52.284;8.032;2022-09-27T09:34:48;4.83;;;1.30;;
7621;SDS011;3852;52.284;8.032;2022-09-27T09:37:26;2.50;;;1.30;;
7621;SDS011;3852;52.284;8.032;2022-09-27T09:40:02;3.17;;;1.27;;
7621;SDS011;3852;52.284;8.032;2022-09-27T09:42:53;2.40;;;1.30;;
7621;SDS011;3852;52.284;8.032;2022-09-27T09:45:30;3.10;;;1.20;;
7621;SDS011;3852;52.284;8.032;2022-09-27T09:50:30;4.10;;;1.40;;
7621;SDS011;3852;52.284;8.032;2022-09-27T09:53:18;3.53;;;1.40;;
7621;SDS011;3852;52.284;8.032;2022-09-27T09:55:58;2.87;;;1.33;;
7621;SDS011;3852;52.284;8.032;2022-09-27T09:58:42;2.00;;;1.30;;
7621;SDS011;3852;52.284;8.032;2022-09-27T10:03:51;4.63;;;1.40;;
7621;SDS011;3852;52.284;8.032;2022-09-27T10:06:20;4.50;;;1.33;;
7621;SDS011;3852;52.284;8.032;2022-09-27T10:08:46;3.17;;;1.23;;
7621;SDS011;3852;52.284;8.032;2022-09-27T10:11:18;3.00;;;1.27;;
7621;SDS011;3852;52.284;8.032;2022-09-27T10:13:50;3.83;;;1.40;;
7621;SDS011;3852;52.284;8.032;2022-09-27T10:16:20;2.77;;;1.10;;
7621;SDS011;3852;52.284;8.032;2022-09-27T10:18:46;5.97;;;1.30;;
7621;SDS011;3852;52.284;8.032;2022-09-27T10:21:20;3.13;;;1.30;;
7621;SDS011;3852;52.284;8.032;2022-09-27T10:26:32;3.07;;;1.50;;
7621;SDS011;3852;52.284;8.032;2022-09-27T10:29:13;7.43;;;1.73;;
7621;SDS011;3852;52.284;8.032;2022-09-27T10:31:40;2.03;;;1.30;;
7621;SDS011;3852;52.284;8.032;2022-09-27T10:34:32;3.33;;;1.00;;
7621;SDS011;3852;52.284;8.032;2022-09-27T10:37:13;4.07;;;1.20;;
7621;SDS011;3852;52.284;8.032;2022-09-27T10:39:43;1.20;;;1.20;;
7621;SDS011;3852;52.284;8.032;2022-09-27T10:42:21;3.87;;;1.50;;
7621;SDS011;3852;52.284;8.032;2022-09-27T10:45:18;1.20;;;1.10;;
7621;SDS011;3852;52.284;8.032;2022-09-27T10:47:55;1.23;;;1.13;;
7621;SDS011;3852;52.284;8.032;2022-09-27T10:50:29;5.60;;;1.50;;
7621;SDS011;3852;52.284;8.032;2022-09-27T10:53:10;2.00;;;1.20;;
7621;SDS011;3852;52.284;8.032;2022-09-27T10:55:40;2.80;;;1.30;;
7621;SDS011;3852;52.284;8.032;2022-09-27T10:58:16;4.23;;;1.20;;
7621;SDS011;3852;52.284;8.032;2022-09-27T11:01:01;1.40;;;1.30;;
7621;SDS011;3852;52.284;8.032;2022-09-27T11:03:35;1.10;;;1.10;;
7621;SDS011;3852;52.284;8.032;2022-09-27T11:06:38;2.93;;;1.10;;
7621;SDS011;3852;52.284;8.032;2022-09-27T11:09:23;2.53;;;1.07;;
7621;SDS011;3852;52.284;8.032;2022-09-27T11:12:04;2.20;;;1.20;;
7621;SDS011;3852;52.284;8.032;2022-09-27T11:14:34;5.60;;;1.23;;
7621;SDS011;3852;52.284;8.032;2022-09-27T11:17:05;1.40;;;1.30;;
7621;SDS011;3852;52.284;8.032;2022-09-27T11:28:50;2.33;;;1.33;;
7621;SDS011;3852;52.284;8.032;2022-09-27T11:40:30;0.90;;;0.90;;
7621;SDS011;3852;52.284;8.032;2022-09-27T11:46:28;1.70;;;1.00;;
7621;SDS011;3852;52.284;8.032;2022-09-27T11:51:52;0.90;;;0.90;;
7621;SDS011;3852;52.284;8.032;2022-09-27T11:54:44;1.00;;;1.00;;
7621;SDS011;3852;52.284;8.032;2022-09-27T11:58:30;2.10;;;1.10;;
7621;SDS011;3852;52.284;8.032;2022-09-27T12:04:50;1.10;;;1.10;;
7621;SDS011;3852;52.284;8.032;2022-09-27T12:10:45;1.00;;;0.87;;
7621;SDS011;3852;52.284;8.032;2022-09-27T12:13:24;1.70;;;1.00;;
7621;SDS011;3852;52.284;8.032;2022-09-27T12:15:57;1.00;;;0.83;;
7621;SDS011;3852;52.284;8.032;2022-09-27T12:18:29;3.43;;;0.77;;
7621;SDS011;3852;52.284;8.032;2022-09-27T12:21:00;0.70;;;0.67;;
7621;SDS011;3852;52.284;8.032;2022-09-27T12:26:17;1.37;;;0.83;;
7621;SDS011;3852;52.284;8.032;2022-09-27T12:28:54;0.70;;;0.70;;
7621;SDS011;3852;52.284;8.032;2022-09-27T12:31:40;0.80;;;0.80;;
7621;SDS011;3852;52.284;8.032;2022-09-27T12:34:24;3.33;;;0.87;;
7621;SDS011;3852;52.284;8.032;2022-09-27T12:45:15;1.03;;;0.80;;
7621;SDS011;3852;52.284;8.032;2022-09-27T12:50:39;0.87;;;0.70;;
7621;SDS011;3852;52.284;8.032;2022-09-27T12:55:49;0.87;;;0.87;;
7621;SDS011;3852;52.284;8.032;2022-09-27T13:04:19;1.27;;;0.90;;
7621;SDS011;3852;52.284;8.032;2022-09-27T13:12:26;1.10;;;1.10;;
7621;SDS011;3852;52.284;8.032;2022-09-27T13:23:00;1.40;;;1.30;;
7621;SDS011;3852;52.284;8.032;2022-09-27T13:25:51;1.20;;;1.20;;
7621;SDS011;3852;52.284;8.032;2022-09-27T13:31:12;1.40;;;1.30;;
7621;SDS011;3852;52.284;8.032;2022-09-27T13:33:46;1.77;;;1.67;;
7621;SDS011;3852;52.284;8.032;2022-09-27T13:49:44;2.00;;;1.30;;
7621;SDS011;3852;52.284;8.032;2022-09-27T13:52:29;1.20;;;1.20;;
7621;SDS011;3852;52.284;8.032;2022-09-27T13:55:17;2.27;;;1.07;;
7621;SDS011;3852;52.284;8.032;2022-09-27T14:01:17;0.93;;;0.93;;
7621;SDS011;3852;52.284;8.032;2022-09-27T14:04:09;2.00;;;1.20;;
7621;SDS011;3852;52.284;8.032;2022-09-27T14:06:53;1.37;;;1.30;;
7621;SDS011;3852;52.284;8.032;2022-09-27T14:09:25;1.53;;;1.40;;
7621;SDS011;3852;52.284;8.032;2022-09-27T14:11:57;1.20;;;1.10;;
7621;SDS011;3852;52.284;8.032;2022-09-27T14:14:28;0.60;;;0.57;;
7621;SDS011;3852;52.284;8.032;2022-09-27T14:17:00;0.93;;;0.53;;
7621;SDS011;3852;52.284;8.032;2022-09-27T14:19:26;0.70;;;0.70;;
7621;SDS011;3852;52.284;8.032;2022-09-27T14:21:53;0.93;;;0.67;;
7621;SDS011;3852;52.284;8.032;2022-09-27T14:24:20;1.80;;;0.87;;
7621;SDS011;3852;52.284;8.032;2022-09-27T14:27:05;0.70;;;0.70;;
7621;SDS011;3852;52.284;8.032;2022-09-27T14:29:53;0.80;;;0.70;;
7621;SDS011;3852;52.284;8.032;2022-09-27T14:32:44;2.07;;;0.70;;
7621;SDS011;3852;52.284;8.032;2022-09-27T14:35:19;1.67;;;0.80;;
7621;SDS011;3852;52.284;8.032;2022-09-27T14:38:09;0.80;;;0.80;;
7621;SDS011;3852;52.284;8.032;2022-09-27T14:40:42;0.97;;;0.80;;
7621;SDS011;3852;52.284;8.032;2022-09-27T14:43:28;1.60;;;0.90;;
7621;SDS011;3852;52.284;8.032;2022-09-27T14:45:56;1.93;;;1.80;;
7621;SDS011;3852;52.284;8.032;2022-09-27T14:48:33;1.43;;;1.20;;
7621;SDS011;3852;52.284;8.032;2022-09-27T14:53:40;1.47;;;1.10;;
7621;SDS011;3852;52.284;8.032;2022-09-27T14:56:08;1.30;;;1.20;;
7621;SDS011;3852;52.284;8.032;2022-09-27T14:58:42;1.23;;;0.93;;
7621;SDS011;3852;52.284;8.032;2022-09-27T15:01:13;1.10;;;1.10;;
7621;SDS011;3852;52.284;8.032;2022-09-27T15:03:41;1.67;;;1.20;;
7621;SDS011;3852;52.284;8.032;2022-09-27T15:06:09;2.40;;;1.50;;
7621;SDS011;3852;52.284;8.032;2022-09-27T15:08:36;1.53;;;1.43;;
7621;SDS011;3852;52.284;8.032;2022-09-27T15:11:03;1.53;;;1.43;;
7621;SDS011;3852;52.284;8.032;2022-09-27T15:13:31;2.40;;;1.50;;
7621;SDS011;3852;52.284;8.032;2022-09-27T15:15:59;1.97;;;1.63;;
7621;SDS011;3852;52.284;8.032;2022-09-27T15:18:33;2.30;;;2.10;;
7621;SDS011;3852;52.284;8.032;2022-09-27T15:21:13;2.03;;;1.90;;
7621;SDS011;3852;52.284;8.032;2022-09-27T15:23:53;2.63;;;2.10;;
7621;SDS011;3852;52.284;8.032;2022-09-27T15:26:36;3.87;;;2.40;;
7621;SDS011;3852;52.284;8.032;2022-09-27T15:29:18;2.83;;;1.97;;
7621;SDS011;3852;52.284;8.032;2022-09-27T15:31:56;4.10;;;2.70;;
7621;SDS011;3852;52.284;8.032;2022-09-27T15:34:30;2.40;;;2.20;;
7621;SDS011;3852;52.284;8.032;2022-09-27T15:37:01;2.73;;;2.53;;
7621;SDS011;3852;52.284;8.032;2022-09-27T15:39:34;4.37;;;2.50;;
7621;SDS011;3852;52.284;8.032;2022-09-27T15:52:54;4.10;;;2.30;;
7621;SDS011;3852;52.284;8.032;2022-09-27T15:55:22;2.97;;;2.20;;
7621;SDS011;3852;52.284;8.032;2022-09-27T15:57:54;3.53;;;2.10;;
7621;SDS011;3852;52.284;8.032;2022-09-27T16:00:24;2.77;;;1.90;;
7621;SDS011;3852;52.284;8.032;2022-09-27T16:02:50;2.00;;;1.90;;
7621;SDS011;3852;52.284;8.032;2022-09-27T16:05:16;1.73;;;1.63;;
7621;SDS011;3852;52.284;8.032;2022-09-27T16:07:44;1.60;;;1.50;;
7621;SDS011;3852;52.284;8.032;2022-09-27T16:10:17;2.20;;;1.50;;
7621;SDS011;3852;52.284;8.032;2022-09-27T16:12:47;1.97;;;1.53;;
7621;SDS011;3852;52.284;8.032;2022-09-27T16:15:15;3.03;;;1.70;;
7621;SDS011;3852;52.284;8.032;2022-09-27T16:17:41;2.37;;;1.63;;
7621;SDS011;3852;52.284;8.032;2022-09-27T16:20:15;1.60;;;1.50;;
7621;SDS011;3852;52.284;8.032;2022-09-27T16:22:49;4.73;;;1.80;;
7621;SDS011;3852;52.284;8.032;2022-09-27T16:25:15;2.70;;;1.60;;
7621;SDS011;3852;52.284;8.032;2022-09-27T16:27:42;4.10;;;1.87;;
7621;SDS011;3852;52.284;8.032;2022-09-27T16:30:08;1.83;;;1.53;;
7621;SDS011;3852;52.284;8.032;2022-09-27T16:32:38;1.80;;;1.70;;
7621;SDS011;3852;52.284;8.032;2022-09-27T16:35:09;2.70;;;1.50;;
7621;SDS011;3852;52.284;8.032;2022-09-27T16:37:37;2.33;;;2.13;;
7621;SDS011;3852;52.284;8.032;2022-09-27T16:40:04;2.17;;;1.87;;
7621;SDS011;3852;52.284;8.032;2022-09-27T16:42:32;2.80;;;1.90;;
7621;SDS011;3852;52.284;8.032;2022-09-27T16:44:59;3.83;;;1.93;;
7621;SDS011;3852;52.284;8.032;2022-09-27T16:47:28;3.87;;;1.97;;
7621;SDS011;3852;52.284;8.032;2022-09-27T16:49:54;2.20;;;1.80;;
7621;SDS011;3852;52.284;8.032;2022-09-27T16:52:39;3.33;;;1.50;;
7621;SDS011;3852;52.284;8.032;2022-09-27T16:55:06;2.30;;;1.63;;
7621;SDS011;3852;52.284;8.032;2022-09-27T16:57:32;2.20;;;1.70;;
7621;SDS011;3852;52.284;8.032;2022-09-27T17:00:02;1.80;;;1.70;;
7621;SDS011;3852;52.284;8.032;2022-09-27T17:02:30;1.87;;;1.70;;
7621;SDS011;3852;52.284;8.032;2022-09-27T17:04:56;1.83;;;1.70;;
7621;SDS011;3852;52.284;8.032;2022-09-27T17:07:22;3.97;;;2.07;;
7621;SDS011;3852;52.284;8.032;2022-09-27T17:09:49;2.13;;;1.93;;
7621;SDS011;3852;52.284;8.032;2022-09-27T17:12:15;2.93;;;2.07;;
7621;SDS011;3852;52.284;8.032;2022-09-27T17:14:41;2.67;;;1.73;;
7621;SDS011;3852;52.284;8.032;2022-09-27T17:17:07;3.30;;;2.10;;
7621;SDS011;3852;52.284;8.032;2022-09-27T17:19:33;1.77;;;1.63;;
7621;SDS011;3852;52.284;8.032;2022-09-27T17:21:59;3.57;;;2.03;;
7621;SDS011;3852;52.284;8.032;2022-09-27T17:24:25;2.77;;;1.93;;
7621;SDS011;3852;52.284;8.032;2022-09-27T17:26:51;2.60;;;2.10;;
7621;SDS011;3852;52.284;8.032;2022-09-27T17:29:17;2.70;;;2.20;;
7621;SDS011;3852;52.284;8.032;2022-09-27T17:31:43;2.73;;;2.33;;
7621;SDS011;3852;52.284;8.032;2022-09-27T17:34:11;2.50;;;2.30;;
7621;SDS011;3852;52.284;8.032;2022-09-27T17:36:41;2.10;;;2.00;;
7621;SDS011;3852;52.284;8.032;2022-09-27T17:39:12;3.57;;;2.67;;
7621;SDS011;3852;52.284;8.032;2022-09-27T17:41:40;4.13;;;2.70;;
7621;SDS011;3852;52.284;8.032;2022-09-27T17:44:09;2.70;;;2.50;;
7621;SDS011;3852;52.284;8.032;2022-09-27T17:46:38;3.33;;;2.50;;
7621;SDS011;3852;52.284;8.032;2022-09-27T17:49:03;4.03;;;2.93;;
7621;SDS011;3852;52.284;8.032;2022-09-27T17:51:48;5.33;;;2.60;;
7621;SDS011;3852;52.284;8.032;2022-09-27T17:54:16;3.87;;;2.63;;
7621;SDS011;3852;52.284;8.032;2022-09-27T17:56:45;4.30;;;3.23;;
7621;SDS011;3852;52.284;8.032;2022-09-27T17:59:12;4.10;;;3.40;;
7621;SDS011;3852;52.284;8.032;2022-09-27T18:01:40;4.47;;;3.07;;
7621;SDS011;3852;52.284;8.032;2022-09-27T18:04:08;3.23;;;2.93;;
7621;SDS011;3852;52.284;8.032;2022-09-27T18:06:36;4.80;;;3.40;;
7621;SDS011;3852;52.284;8.032;2022-09-27T18:09:04;4.93;;;2.93;;
7621;SDS011;3852;52.284;8.032;2022-09-27T18:11:33;2.77;;;2.57;;
7621;SDS011;3852;52.284;8.032;2022-09-27T18:13:59;4.07;;;2.70;;
7621;SDS011;3852;52.284;8.032;2022-09-27T18:16:29;3.47;;;2.70;;
7621;SDS011;3852;52.284;8.032;2022-09-27T18:18:59;2.70;;;2.50;;
7621;SDS011;3852;52.284;8.032;2022-09-27T18:21:27;2.73;;;2.27;;
7621;SDS011;3852;52.284;8.032;2022-09-27T18:23:56;2.70;;;2.43;;
7621;SDS011;3852;52.284;8.032;2022-09-27T18:26:27;3.17;;;2.27;;
7621;SDS011;3852;52.284;8.032;2022-09-27T18:29:00;3.33;;;3.00;;
7621;SDS011;3852;52.284;8.032;2022-09-27T18:31:29;4.23;;;2.67;;
7621;SDS011;3852;52.284;8.032;2022-09-27T18:33:55;5.33;;;3.10;;
7621;SDS011;3852;52.284;8.032;2022-09-27T18:36:22;2.83;;;2.63;;
7621;SDS011;3852;52.284;8.032;2022-09-27T18:38:54;3.13;;;2.83;;
7621;SDS011;3852;52.284;8.032;2022-09-27T18:41:26;3.40;;;2.97;;
7621;SDS011;3852;52.284;8.032;2022-09-27T18:43:55;5.23;;;3.00;;
7621;SDS011;3852;52.284;8.032;2022-09-27T18:46:25;5.73;;;4.20;;
7621;SDS011;3852;52.284;8.032;2022-09-27T18:48:58;6.23;;;5.40;;
7621;SDS011;3852;52.284;8.032;2022-09-27T18:51:25;5.23;;;4.00;;
7621;SDS011;3852;52.284;8.032;2022-09-27T18:53:56;3.90;;;3.60;;